createdAt,value
2023-01-20T00:01:12.063Z,95.40
2023-01-20T00:03:40.393Z,95.30
2023-01-20T00:06:10.737Z,95.40
2023-01-20T00:08:39.252Z,95.30
2023-01-20T00:11:09.001Z,95.30
2023-01-20T00:13:37.509Z,95.30
2023-01-20T00:16:06.504Z,95.30
2023-01-20T00:18:35.114Z,95.30
2023-01-20T00:21:05.375Z,95.30
2023-01-20T00:23:34.898Z,95.30
2023-01-20T00:26:05.764Z,95.30
2023-01-20T00:28:34.326Z,95.30
2023-01-20T00:31:11.929Z,95.30
2023-01-20T00:33:40.078Z,95.30
2023-01-20T00:36:09.225Z,95.20
2023-01-20T00:38:38.733Z,95.20
2023-01-20T00:41:07.428Z,95.20
2023-01-20T00:43:35.543Z,95.20
2023-01-20T00:46:04.058Z,95.20
2023-01-20T00:48:32.129Z,95.20
2023-01-20T00:51:00.337Z,95.20
2023-01-20T00:53:28.460Z,95.20
2023-01-20T00:55:57.916Z,95.20
2023-01-20T00:58:26.167Z,95.10
2023-01-20T01:00:55.288Z,95.10
2023-01-20T01:03:23.867Z,95.10
2023-01-20T01:05:52.359Z,95.10
2023-01-20T01:08:20.521Z,95.10
2023-01-20T01:10:48.661Z,95.00
2023-01-20T01:13:18.082Z,95.00
2023-01-20T01:15:49.545Z,95.00
2023-01-20T01:18:17.823Z,95.00
2023-01-20T01:20:46.034Z,95.00
2023-01-20T01:23:14.154Z,94.90
2023-01-20T01:25:42.202Z,95.00
2023-01-20T01:28:10.282Z,94.90
2023-01-20T01:30:39.771Z,94.90
2023-01-20T01:33:08.052Z,94.90
2023-01-20T01:35:36.126Z,94.90
2023-01-20T01:38:04.239Z,94.90
2023-01-20T01:40:32.334Z,94.90
2023-01-20T01:43:00.439Z,94.90
2023-01-20T01:45:29.988Z,94.90
2023-01-20T01:48:04.532Z,94.90
2023-01-20T01:50:38.115Z,94.90
2023-01-20T01:53:06.750Z,94.90
2023-01-20T01:55:38.342Z,94.90
2023-01-20T01:58:07.395Z,94.90
2023-01-20T02:00:35.591Z,94.90
2023-01-20T02:03:05.405Z,94.90
2023-01-20T02:05:34.020Z,94.90
2023-01-20T02:08:02.345Z,94.90
2023-01-20T02:10:31.537Z,94.90
2023-01-20T02:13:00.286Z,94.90
2023-01-20T02:15:31.288Z,94.90
2023-01-20T02:18:17.075Z,94.80
2023-01-20T02:20:55.155Z,94.80
2023-01-20T02:23:44.507Z,94.80
2023-01-20T02:26:48.364Z,94.80
2023-01-20T02:29:44.197Z,94.70
2023-01-20T02:32:22.785Z,94.70
2023-01-20T02:34:56.060Z,94.70
2023-01-20T02:37:26.815Z,94.70
2023-01-20T02:40:01.936Z,94.70
2023-01-20T02:42:39.521Z,94.70
2023-01-20T02:45:12.410Z,94.70
2023-01-20T02:47:50.647Z,94.70
2023-01-20T02:50:22.836Z,94.70
2023-01-20T02:52:53.544Z,94.80
2023-01-20T02:55:26.690Z,94.80
2023-01-20T02:57:58.347Z,94.80
2023-01-20T03:00:29.795Z,94.80
2023-01-20T03:03:00.884Z,94.80
2023-01-20T03:05:31.134Z,94.80
2023-01-20T03:08:02.644Z,94.80
2023-01-20T03:10:33.760Z,94.80
2023-01-20T03:13:07.992Z,94.80
2023-01-20T03:15:38.709Z,94.70
2023-01-20T03:18:08.172Z,94.70
2023-01-20T03:20:37.473Z,94.70
2023-01-20T03:23:05.605Z,94.70
2023-01-20T03:25:34.189Z,94.70
2023-01-20T03:28:02.335Z,94.70
2023-01-20T03:30:30.533Z,94.70
2023-01-20T03:32:58.628Z,94.80
2023-01-20T03:35:29.106Z,94.80
2023-01-20T03:37:57.194Z,94.80
2023-01-20T03:40:26.464Z,94.80
2023-01-20T03:42:59.638Z,94.80
2023-01-20T03:45:33.419Z,94.80
2023-01-20T03:48:07.880Z,94.70
2023-01-20T03:50:40.960Z,94.70
2023-01-20T03:53:16.122Z,94.60
2023-01-20T03:55:47.826Z,94.60
2023-01-20T03:58:18.200Z,94.50
2023-01-20T04:00:48.116Z,94.40
2023-01-20T04:03:18.048Z,94.30
2023-01-20T04:05:48.349Z,94.30
2023-01-20T04:08:18.192Z,94.30
2023-01-20T04:10:48.196Z,94.20
2023-01-20T04:13:16.587Z,94.30
2023-01-20T04:15:46.556Z,94.30
2023-01-20T04:18:15.736Z,94.20
2023-01-20T04:20:44.606Z,94.20
2023-01-20T04:23:19.641Z,94.20
2023-01-20T04:25:47.724Z,94.30
2023-01-20T04:28:15.864Z,94.30
2023-01-20T04:30:44.046Z,94.30
2023-01-20T04:33:12.160Z,94.30
2023-01-20T04:35:40.224Z,94.30
2023-01-20T04:38:08.319Z,94.30
2023-01-20T04:40:37.825Z,94.30
2023-01-20T04:43:06.031Z,94.30
2023-01-20T04:45:34.207Z,94.40
2023-01-20T04:48:02.285Z,94.30
2023-01-20T04:50:30.449Z,94.30
2023-01-20T04:53:00.690Z,94.30
2023-01-20T04:55:29.003Z,94.30
2023-01-20T04:57:58.624Z,94.30
2023-01-20T05:00:26.673Z,94.30
2023-01-20T05:02:55.099Z,94.20
2023-01-20T05:05:23.278Z,94.20
2023-01-20T05:07:57.087Z,94.20
2023-01-20T05:10:25.173Z,94.20
2023-01-20T05:12:53.227Z,94.20
2023-01-20T05:15:22.658Z,94.20
2023-01-20T05:17:50.716Z,94.20
2023-01-20T05:20:20.339Z,94.30
2023-01-20T05:22:48.515Z,94.20
2023-01-20T05:25:16.858Z,94.20
2023-01-20T05:27:45.629Z,94.10
2023-01-20T05:30:14.340Z,94.00
2023-01-20T05:32:43.746Z,94.00
2023-01-20T05:35:11.937Z,94.00
2023-01-20T05:37:40.095Z,94.00
2023-01-20T05:40:09.443Z,94.00
2023-01-20T05:42:37.517Z,94.00
2023-01-20T05:45:06.576Z,94.00
2023-01-20T05:47:34.665Z,94.10
2023-01-20T05:50:04.439Z,94.00
2023-01-20T05:52:32.524Z,94.10
2023-01-20T05:55:00.573Z,94.10
2023-01-20T05:57:28.673Z,94.10
2023-01-20T05:59:56.728Z,94.00
2023-01-20T06:02:24.863Z,93.90
2023-01-20T06:04:52.973Z,93.90
2023-01-20T06:07:22.460Z,93.90
2023-01-20T06:09:50.583Z,93.90
2023-01-20T06:12:20.161Z,93.90
2023-01-20T06:14:48.247Z,93.90
2023-01-20T06:17:16.600Z,93.90
2023-01-20T06:19:44.685Z,93.90
2023-01-20T06:22:15.297Z,93.90
2023-01-20T06:24:44.793Z,94.00
2023-01-20T06:27:13.746Z,94.00
2023-01-20T06:29:41.975Z,94.00
2023-01-20T06:32:10.044Z,94.00
2023-01-20T06:34:38.192Z,94.00
2023-01-20T06:37:06.266Z,94.00
2023-01-20T06:39:34.388Z,94.10
2023-01-20T06:42:03.833Z,94.00
2023-01-20T06:44:31.910Z,94.00
2023-01-20T06:46:59.978Z,94.00
2023-01-20T06:49:28.264Z,94.00
2023-01-20T06:51:56.340Z,94.00
2023-01-20T06:54:24.513Z,94.00
2023-01-20T06:56:52.717Z,94.00
2023-01-20T06:59:22.141Z,94.00
2023-01-20T07:01:50.473Z,94.00
2023-01-20T07:04:18.826Z,93.90
2023-01-20T07:06:46.916Z,93.80
2023-01-20T07:09:15.042Z,93.80
2023-01-20T07:11:43.155Z,93.70
2023-01-20T07:14:11.262Z,93.70
2023-01-20T07:16:40.835Z,93.60
2023-01-20T07:19:08.970Z,93.60
2023-01-20T07:21:37.066Z,93.60
2023-01-20T07:24:05.900Z,93.70
2023-01-20T07:26:34.033Z,93.70
2023-01-20T07:29:02.326Z,93.70
2023-01-20T07:31:31.400Z,93.70
2023-01-20T07:34:01.119Z,93.70
2023-01-20T07:36:29.373Z,93.60
2023-01-20T07:38:57.459Z,93.70
2023-01-20T07:41:25.489Z,93.70
2023-01-20T07:43:54.341Z,93.60
2023-01-20T07:46:22.972Z,93.60
2023-01-20T07:48:51.062Z,93.60
2023-01-20T07:51:20.745Z,93.60
2023-01-20T07:53:50.969Z,93.50
2023-01-20T07:56:20.943Z,93.50
2023-01-20T07:58:50.610Z,93.40
2023-01-20T08:01:20.413Z,93.30
2023-01-20T08:03:48.987Z,93.30
2023-01-20T08:06:19.207Z,93.30
2023-01-20T08:08:48.941Z,93.30
2023-01-20T08:11:18.373Z,93.30
2023-01-20T08:13:47.034Z,93.20
2023-01-20T08:16:17.269Z,93.20
2023-01-20T08:18:45.702Z,93.20
2023-01-20T08:21:21.469Z,93.00
2023-01-20T08:23:51.108Z,93.00
2023-01-20T08:26:20.469Z,93.00
2023-01-20T08:28:48.634Z,92.90
2023-01-20T08:31:19.778Z,93.00
2023-01-20T08:33:48.582Z,92.90
2023-01-20T08:36:18.944Z,92.90
2023-01-20T08:38:47.760Z,92.80
2023-01-20T08:41:19.223Z,92.70
2023-01-20T08:43:47.783Z,92.70
2023-01-20T08:46:17.492Z,92.70
2023-01-20T08:48:45.968Z,92.80
2023-01-20T08:51:15.964Z,92.70
2023-01-20T08:53:44.726Z,92.70
2023-01-20T08:56:13.806Z,92.60
2023-01-20T08:58:43.307Z,92.60
2023-01-20T09:01:12.377Z,92.70
2023-01-20T09:03:43.405Z,92.80
2023-01-20T09:06:14.034Z,93.00
2023-01-20T09:08:42.674Z,93.00
2023-01-20T09:11:12.575Z,93.00
2023-01-20T09:13:40.669Z,93.10
2023-01-20T09:16:12.330Z,93.10
2023-01-20T09:18:40.718Z,93.20
2023-01-20T09:21:08.849Z,93.10
2023-01-20T09:23:38.651Z,93.20
2023-01-20T09:26:08.437Z,93.20
2023-01-20T09:28:37.027Z,93.20
2023-01-20T09:31:06.989Z,93.20
2023-01-20T09:33:39.092Z,93.20
2023-01-20T09:36:08.828Z,93.20
2023-01-20T09:38:54.499Z,93.10
2023-01-20T09:41:46.347Z,93.10
2023-01-20T09:44:25.153Z,93.10
2023-01-20T09:47:22.108Z,93.20
2023-01-20T09:50:25.196Z,93.30
2023-01-20T09:53:03.703Z,93.40
2023-01-20T09:55:42.102Z,93.40
2023-01-20T09:58:17.371Z,93.20
2023-01-20T10:00:49.900Z,93.30
2023-01-20T10:03:21.593Z,93.30
2023-01-20T10:05:51.923Z,93.40
2023-01-20T10:08:22.389Z,93.40
2023-01-20T10:10:53.740Z,93.30
2023-01-20T10:13:25.430Z,93.30
2023-01-20T10:15:55.801Z,93.40
2023-01-20T10:18:31.367Z,93.40
2023-01-20T10:21:07.865Z,93.50
2023-01-20T10:23:41.159Z,93.50
2023-01-20T10:26:12.928Z,93.60
2023-01-20T10:28:43.308Z,93.60
2023-01-20T10:31:12.635Z,93.60
2023-01-20T10:33:43.929Z,93.70
2023-01-20T10:36:16.701Z,93.80
2023-01-20T10:38:52.979Z,93.90
2023-01-20T10:41:25.364Z,93.90
2023-01-20T10:43:53.523Z,93.90
2023-01-20T10:46:40.854Z,94.00
2023-01-20T10:49:25.552Z,94.00
2023-01-20T10:52:08.549Z,94.00
2023-01-20T10:54:42.094Z,94.10
2023-01-20T10:57:15.771Z,94.00
2023-01-20T10:59:48.365Z,94.20
2023-01-20T11:02:19.169Z,94.20
2023-01-20T11:05:00.415Z,94.30
2023-01-20T11:07:31.101Z,94.30
2023-01-20T11:10:01.050Z,94.30
2023-01-20T11:12:31.516Z,94.40
2023-01-20T11:15:01.616Z,94.40
2023-01-20T11:17:29.664Z,94.40
2023-01-20T11:19:58.845Z,94.40
2023-01-20T11:22:30.862Z,94.40
2023-01-20T11:24:59.965Z,94.40
2023-01-20T11:27:29.908Z,94.40
2023-01-20T11:30:00.701Z,94.50
2023-01-20T11:32:31.509Z,94.50
2023-01-20T11:35:00.239Z,94.50
2023-01-20T11:37:37.177Z,94.50
2023-01-20T11:40:19.231Z,94.60
2023-01-20T11:42:49.106Z,94.50
2023-01-20T11:45:29.394Z,94.60
2023-01-20T11:48:10.942Z,94.70
2023-01-20T11:50:40.929Z,94.70
2023-01-20T11:53:23.256Z,94.70
2023-01-20T11:55:53.459Z,94.70
2023-01-20T11:58:23.467Z,94.70
2023-01-20T12:01:01.272Z,94.70
2023-01-20T12:03:46.211Z,94.70
2023-01-20T12:06:17.649Z,94.70
2023-01-20T12:08:51.426Z,94.80
2023-01-20T12:11:24.831Z,94.80
2023-01-20T12:14:19.845Z,94.80
2023-01-20T12:16:51.100Z,94.80
2023-01-20T12:19:20.446Z,94.90
2023-01-20T12:21:51.879Z,94.90
2023-01-20T12:24:35.279Z,94.90
2023-01-20T12:27:12.448Z,94.90
2023-01-20T12:29:44.965Z,94.90
2023-01-20T12:32:13.004Z,94.90
2023-01-20T12:34:41.083Z,94.80
2023-01-20T12:37:14.390Z,94.90
2023-01-20T12:39:51.903Z,94.90
2023-01-20T12:42:47.525Z,94.90
2023-01-20T12:45:24.215Z,94.80
2023-01-20T12:48:03.008Z,94.80
2023-01-20T12:50:39.296Z,94.80
2023-01-20T12:53:22.036Z,94.80
2023-01-20T12:56:00.861Z,94.70
2023-01-20T12:58:40.218Z,94.70
2023-01-20T13:01:31.407Z,94.70
2023-01-20T13:04:12.887Z,94.70
2023-01-20T13:07:12.056Z,94.80
2023-01-20T13:09:55.029Z,94.70
2023-01-20T13:12:44.840Z,94.70
2023-01-20T13:15:20.335Z,94.60
2023-01-20T13:18:15.200Z,94.60
2023-01-20T13:20:45.875Z,94.60
2023-01-20T13:23:16.023Z,94.60
2023-01-20T13:25:46.297Z,94.70
2023-01-20T13:28:20.546Z,94.70
2023-01-20T13:30:51.312Z,94.70
2023-01-20T13:33:36.518Z,94.70
2023-01-20T13:36:17.050Z,94.70
2023-01-20T13:38:49.301Z,94.70
2023-01-20T13:41:48.647Z,94.70
2023-01-20T13:44:35.338Z,94.70
2023-01-20T13:47:03.897Z,94.70
2023-01-20T13:49:51.774Z,94.60
2023-01-20T13:52:58.729Z,94.60
2023-01-20T13:55:29.209Z,94.60
2023-01-20T13:57:57.359Z,94.60
2023-01-20T14:00:26.845Z,94.50
2023-01-20T14:02:54.949Z,94.50
2023-01-20T14:05:32.576Z,94.50
2023-01-20T14:08:01.000Z,94.60
2023-01-20T14:10:29.699Z,94.50
2023-01-20T14:12:57.775Z,94.60
2023-01-20T14:15:34.037Z,94.50
2023-01-20T14:18:02.482Z,94.50
2023-01-20T14:20:31.413Z,94.60
2023-01-20T14:23:34.199Z,94.50
2023-01-20T14:26:08.563Z,94.60
2023-01-20T14:28:42.687Z,94.50
2023-01-20T14:31:20.239Z,94.50
2023-01-20T14:33:51.907Z,94.50
2023-01-20T14:36:21.249Z,94.50
2023-01-20T14:38:57.662Z,94.40
2023-01-20T14:41:32.484Z,94.40
2023-01-20T14:44:01.163Z,94.40
2023-01-20T14:46:32.922Z,94.40
2023-01-20T14:49:01.546Z,94.30
2023-01-20T14:51:29.854Z,94.40
2023-01-20T14:54:34.697Z,94.30
2023-01-20T14:57:12.732Z,94.40
2023-01-20T14:59:40.773Z,94.40
2023-01-20T15:02:21.615Z,94.40
2023-01-20T15:04:49.880Z,94.30
2023-01-20T15:07:21.226Z,94.40
2023-01-20T15:09:55.649Z,94.40
2023-01-20T15:12:52.372Z,94.30
2023-01-20T15:15:29.035Z,94.30
2023-01-20T15:18:17.537Z,94.20
2023-01-20T15:20:48.318Z,94.10
2023-01-20T15:23:20.392Z,94.10
2023-01-20T15:25:49.828Z,94.10
2023-01-20T15:28:28.888Z,94.00
2023-01-20T15:30:58.645Z,94.00
2023-01-20T15:33:28.218Z,93.90
2023-01-20T15:35:57.735Z,93.90
2023-01-20T15:38:33.196Z,93.90
2023-01-20T15:41:01.265Z,93.80
2023-01-20T15:43:29.384Z,93.70
2023-01-20T15:45:57.454Z,93.70
2023-01-20T15:48:25.508Z,93.70
2023-01-20T15:50:54.965Z,93.70
2023-01-20T15:53:23.026Z,93.70
2023-01-20T15:55:52.719Z,93.80
2023-01-20T15:58:25.666Z,93.80
2023-01-20T16:00:54.981Z,93.90
2023-01-20T16:03:23.406Z,93.80
2023-01-20T16:05:52.049Z,93.90
2023-01-20T16:08:23.365Z,93.90
2023-01-20T16:10:51.598Z,93.90
2023-01-20T16:13:19.628Z,93.80
2023-01-20T16:15:47.655Z,93.80
2023-01-20T16:18:17.077Z,93.80
2023-01-20T16:20:46.617Z,93.80
2023-01-20T16:23:15.311Z,93.80
2023-01-20T16:25:44.756Z,93.70
2023-01-20T16:28:14.733Z,93.60
2023-01-20T16:30:43.073Z,93.60
2023-01-20T16:33:19.606Z,93.60
2023-01-20T16:35:48.587Z,93.70
2023-01-20T16:38:18.353Z,93.60
2023-01-20T16:40:50.432Z,93.60
2023-01-20T16:43:18.930Z,93.50
2023-01-20T16:45:52.624Z,93.60
2023-01-20T16:48:21.261Z,93.60
2023-01-20T16:50:49.502Z,93.50
2023-01-20T16:53:18.395Z,93.50
2023-01-20T16:55:49.118Z,93.50
2023-01-20T16:58:17.987Z,93.50
2023-01-20T17:00:46.075Z,93.50
2023-01-20T17:03:14.241Z,93.50
2023-01-20T17:05:42.397Z,93.50
2023-01-20T17:08:10.890Z,93.40
2023-01-20T17:10:38.974Z,93.20
2023-01-20T17:15:06.086Z,93.20
2023-01-20T17:17:38.550Z,93.20
2023-01-20T17:20:10.531Z,93.20
2023-01-20T17:22:40.181Z,93.20
2023-01-20T17:25:10.755Z,93.20
2023-01-20T17:27:39.175Z,93.20
2023-01-20T17:30:11.756Z,93.20
2023-01-20T17:32:40.061Z,93.20
2023-01-20T17:35:09.129Z,93.20
2023-01-20T17:37:37.446Z,93.30
2023-01-20T17:40:07.461Z,93.20
2023-01-20T17:42:35.742Z,93.20
2023-01-20T17:45:04.333Z,93.10
2023-01-20T17:47:33.968Z,93.10
2023-01-20T17:50:02.342Z,93.10
2023-01-20T17:52:30.603Z,93.00
2023-01-20T17:54:58.983Z,93.00
2023-01-20T17:57:28.058Z,93.00
2023-01-20T17:59:56.293Z,93.00
2023-01-20T18:02:24.587Z,92.90
2023-01-20T18:04:54.721Z,92.90
2023-01-20T18:07:23.027Z,92.90
2023-01-20T18:09:51.285Z,92.90
2023-01-20T18:12:21.425Z,92.90
2023-01-20T18:14:49.694Z,92.90
2023-01-20T18:17:17.952Z,92.80
2023-01-20T18:19:46.721Z,92.80
2023-01-20T18:22:16.324Z,92.80
2023-01-20T18:24:44.955Z,92.80
2023-01-20T18:27:14.833Z,92.70
2023-01-20T18:29:43.117Z,92.70
2023-01-20T18:32:11.521Z,92.70
2023-01-20T18:34:39.811Z,92.60
2023-01-20T18:37:08.246Z,92.60
2023-01-20T18:39:37.960Z,92.60
2023-01-20T18:42:06.680Z,92.60
2023-01-20T18:44:35.613Z,92.60
2023-01-20T18:47:04.744Z,92.50
2023-01-20T18:49:33.056Z,92.50
2023-01-20T18:52:01.408Z,92.50
2023-01-20T18:54:32.797Z,92.50
2023-01-20T18:57:03.762Z,92.40
2023-01-20T18:59:32.289Z,92.30
2023-01-20T19:02:00.556Z,92.30
2023-01-20T19:04:29.894Z,92.20
2023-01-20T19:06:58.545Z,92.20
2023-01-20T19:09:27.368Z,92.20
2023-01-20T19:11:55.707Z,92.30
2023-01-20T19:14:25.362Z,92.30
2023-01-20T19:16:53.631Z,92.20
2023-01-20T19:19:22.175Z,92.10
2023-01-20T19:21:52.779Z,92.10
2023-01-20T19:24:22.698Z,92.10
2023-01-20T19:26:51.030Z,92.00
2023-01-20T19:29:19.771Z,92.10
2023-01-20T19:31:51.682Z,92.10
2023-01-20T19:34:19.998Z,92.00
2023-01-20T19:36:48.327Z,92.00
2023-01-20T19:39:16.797Z,92.00
2023-01-20T19:41:45.083Z,92.00
2023-01-20T19:44:14.306Z,92.00
2023-01-20T19:46:42.836Z,92.00
2023-01-20T19:49:13.406Z,92.00
2023-01-20T19:51:41.816Z,92.00
2023-01-20T19:54:12.684Z,92.00
2023-01-20T19:56:41.474Z,92.00
2023-01-20T19:59:13.173Z,92.00
2023-01-20T20:01:41.526Z,92.00
2023-01-20T20:04:13.821Z,92.00
2023-01-20T20:06:47.730Z,92.00
2023-01-20T20:09:18.562Z,92.00
2023-01-20T20:11:47.248Z,92.10
2023-01-20T20:14:17.976Z,92.00
2023-01-20T20:16:46.676Z,92.00
2023-01-20T20:19:19.226Z,92.10
2023-01-20T20:21:48.079Z,92.10
2023-01-20T20:24:18.993Z,92.10
2023-01-20T20:26:48.904Z,92.10
2023-01-20T20:29:19.516Z,92.10
2023-01-20T20:31:48.392Z,92.10
2023-01-20T20:34:20.375Z,92.10
2023-01-20T20:36:48.853Z,92.10
2023-01-20T20:39:19.786Z,92.10
2023-01-20T20:41:48.102Z,92.10
2023-01-20T20:44:16.684Z,92.10
2023-01-20T20:46:44.992Z,92.10
2023-01-20T20:49:15.831Z,92.10
2023-01-20T20:51:45.585Z,92.10
2023-01-20T20:54:16.817Z,92.00
2023-01-20T20:56:45.928Z,92.10
2023-01-20T20:59:14.656Z,92.10
2023-01-20T21:01:43.117Z,92.10
2023-01-20T21:04:12.065Z,92.10
2023-01-20T21:06:40.385Z,92.00
2023-01-20T21:09:10.458Z,92.10
2023-01-20T21:11:39.231Z,92.20
2023-01-20T21:14:08.539Z,92.10
2023-01-20T21:16:37.952Z,92.20
2023-01-20T21:19:06.527Z,92.20
2023-01-20T21:21:34.921Z,92.30
2023-01-20T21:24:03.556Z,92.30
2023-01-20T21:26:33.191Z,92.30
2023-01-20T21:29:03.776Z,92.20
2023-01-20T21:31:34.342Z,92.30
2023-01-20T21:34:03.622Z,92.30
2023-01-20T21:36:34.544Z,92.40
2023-01-20T21:39:02.666Z,92.30
2023-01-20T21:41:32.655Z,92.30
2023-01-20T21:44:18.225Z,92.30
2023-01-20T21:46:46.619Z,92.30
2023-01-20T21:49:32.538Z,92.30
2023-01-20T21:52:18.059Z,92.40
2023-01-20T21:54:46.784Z,92.50
2023-01-20T21:57:16.750Z,92.50
2023-01-20T21:59:45.699Z,92.50
2023-01-20T22:02:15.049Z,92.50
2023-01-20T22:04:43.744Z,92.50
2023-01-20T22:07:12.056Z,92.40
2023-01-20T22:09:40.659Z,92.50
2023-01-20T22:12:09.411Z,92.50
2023-01-20T22:14:39.621Z,92.40
2023-01-20T22:17:10.014Z,92.40
2023-01-20T22:19:39.202Z,92.50
2023-01-20T22:22:08.177Z,92.50
2023-01-20T22:24:36.725Z,92.50
2023-01-20T22:27:05.190Z,92.60
2023-01-20T22:29:33.461Z,92.60
2023-01-20T22:32:04.302Z,92.60
2023-01-20T22:34:32.793Z,92.60
2023-01-20T22:37:01.694Z,92.60
2023-01-20T22:39:30.297Z,92.60
2023-01-20T22:41:58.603Z,92.60
2023-01-20T22:44:26.992Z,92.80
2023-01-20T22:46:55.316Z,92.80
2023-01-20T22:49:24.967Z,92.80
2023-01-20T22:51:55.865Z,92.80
2023-01-20T22:54:24.123Z,92.70
2023-01-20T22:56:52.572Z,92.80
2023-01-20T22:59:20.881Z,92.70
2023-01-20T23:01:49.210Z,92.70
2023-01-20T23:04:17.561Z,92.70
2023-01-20T23:06:47.204Z,92.80
2023-01-20T23:09:15.537Z,92.70
2023-01-20T23:11:43.859Z,92.80
2023-01-20T23:14:13.599Z,92.80
2023-01-20T23:16:43.020Z,92.80
2023-01-20T23:19:11.955Z,92.70
2023-01-20T23:21:41.034Z,92.60
2023-01-20T23:24:10.761Z,92.50
2023-01-20T23:26:39.021Z,92.50
2023-01-20T23:29:07.271Z,92.60
2023-01-20T23:31:35.682Z,92.60
2023-01-20T23:34:04.085Z,92.70
2023-01-20T23:36:32.392Z,92.80
2023-01-20T23:39:00.785Z,92.80
2023-01-20T23:41:30.455Z,92.80
2023-01-20T23:43:58.704Z,92.80
2023-01-20T23:46:27.018Z,92.70
2023-01-20T23:48:55.327Z,92.70
2023-01-20T23:51:23.685Z,92.60
2023-01-20T23:53:52.232Z,92.60
2023-01-20T23:56:23.634Z,92.60
2023-01-20T23:58:53.647Z,92.60
